Lexington, Georgia
Current Conditions -  °F | °C
As of 7:51 AM on Sunday 23 Nov 2014 (Local Time) from KAHN Reporting Station
Light Rain Light Rain  
Wind Chill: 39°   Ceiling: 200
Heat Index: 45°   Visibility: 1.2mi
Dew Point: 44°   Wind: 12mph
Humidity: 97%   Direction: 70°ENE
Pressure: 30.08"   Gusts: NA
Location:  33.87°N, 83.11°W
Report Text: KAHN 231251Z AUTO 07010KT 1 1/4SM -RA BR OVC002 07/07 A3008 RMK AO2 SLP189 P0001 T00720067 $
Loading
Personal Weather Stations






























Interactive Weather Map New forecast layout! Learn more

10-Day Weather Forecast

Advertisements
Track Severe Weather on mobile